createdAt,value
2022-12-27T00:00:33.566Z,30.90
2022-12-27T00:05:35.289Z,25.80
2022-12-27T00:10:37.256Z,28.30
2022-12-27T00:15:38.960Z,22.70
2022-12-27T00:20:40.667Z,25.10
2022-12-27T00:25:42.542Z,25.10
2022-12-27T00:30:44.306Z,22.20
2022-12-27T00:35:45.957Z,22.50
2022-12-27T00:40:48.083Z,27.10
2022-12-27T00:45:50.435Z,26.40
2022-12-27T00:50:58.716Z,28.00
2022-12-27T00:56:01.165Z,27.40
2022-12-27T01:01:15.575Z,27.50
2022-12-27T01:06:21.485Z,27.70
2022-12-27T01:11:24.433Z,25.80
2022-12-27T01:16:28.346Z,28.90
2022-12-27T01:21:31.043Z,26.00
2022-12-27T01:26:32.798Z,21.00
2022-12-27T01:31:35.618Z,18.60
2022-12-27T01:36:37.530Z,17.60
2022-12-27T01:42:01.731Z,21.50
2022-12-27T01:47:05.703Z,20.10
2022-12-27T01:52:11.271Z,19.80
2022-12-27T01:57:13.019Z,21.20
2022-12-27T02:02:15.089Z,21.30
2022-12-27T02:07:18.597Z,26.70
2022-12-27T02:12:21.260Z,21.50
2022-12-27T02:17:27.132Z,23.20
2022-12-27T02:23:05.754Z,21.10
2022-12-27T02:28:30.522Z,21.90
2022-12-27T02:33:38.956Z,21.00
2022-12-27T02:38:45.237Z,20.40
2022-12-27T02:44:06.298Z,21.00
2022-12-27T02:49:53.753Z,19.20
2022-12-27T02:55:08.295Z,19.40
2022-12-27T03:00:39.151Z,13.00
2022-12-27T03:06:17.866Z,11.50
2022-12-27T03:11:38.885Z,13.10
2022-12-27T03:16:55.756Z,8.70
2022-12-27T03:22:17.297Z,4.80
2022-12-27T03:27:32.267Z,7.40
2022-12-27T03:32:58.405Z,1.80
2022-12-27T03:38:05.257Z,2.20
2022-12-27T03:43:16.188Z,2.30
2022-12-27T03:48:22.746Z,2.50
2022-12-27T03:53:38.367Z,6.90
2022-12-27T03:58:40.273Z,2.50
2022-12-27T04:03:42.198Z,3.50
2022-12-27T04:09:02.758Z,7.00
2022-12-27T04:14:23.153Z,6.90
2022-12-27T04:19:43.613Z,8.10
2022-12-27T04:25:04.266Z,5.60
2022-12-27T04:30:25.332Z,7.80
2022-12-27T04:35:27.189Z,5.70
2022-12-27T04:40:47.655Z,8.90
2022-12-27T04:46:08.371Z,8.60
2022-12-27T04:51:28.969Z,8.90
2022-12-27T04:56:30.680Z,11.00
2022-12-27T05:01:50.975Z,10.20
2022-12-27T05:06:53.515Z,10.70
2022-12-27T05:12:14.025Z,8.40
2022-12-27T05:17:16.001Z,19.40
2022-12-27T05:22:36.452Z,20.00
2022-12-27T05:27:38.154Z,19.00
2022-12-27T05:32:39.805Z,11.70
2022-12-27T05:37:41.492Z,11.60
2022-12-27T05:42:43.205Z,19.10
2022-12-27T05:47:45.108Z,19.50
2022-12-27T05:52:46.968Z,17.50
2022-12-27T05:57:48.773Z,27.50
2022-12-27T06:02:50.583Z,9.30
2022-12-27T06:07:52.462Z,11.70
2022-12-27T06:12:54.138Z,22.50
2022-12-27T06:17:56.153Z,15.70
2022-12-27T06:23:00.232Z,14.90
2022-12-27T06:28:02.064Z,21.50
2022-12-27T06:33:03.865Z,14.30
2022-12-27T06:38:05.626Z,15.60
2022-12-27T06:43:07.491Z,16.40
2022-12-27T06:48:09.302Z,11.80
2022-12-27T06:53:11.039Z,12.90
2022-12-27T06:58:13.721Z,17.50
2022-12-27T07:03:15.452Z,19.80
2022-12-27T07:08:17.371Z,22.60
2022-12-27T07:13:19.491Z,14.00
2022-12-27T07:18:21.208Z,15.20
2022-12-27T07:23:22.939Z,14.40
2022-12-27T07:28:25.230Z,16.80
2022-12-27T07:33:26.926Z,15.50
2022-12-27T07:38:29.022Z,9.20
2022-12-27T07:43:33.723Z,18.30
2022-12-27T07:48:36.490Z,11.30
2022-12-27T07:53:38.211Z,14.00
2022-12-27T07:58:42.508Z,17.00
2022-12-27T08:03:44.807Z,15.00
2022-12-27T08:08:47.417Z,14.40
2022-12-27T08:13:49.375Z,5.30
2022-12-27T08:18:53.131Z,9.30
2022-12-27T08:23:54.928Z,10.40
2022-12-27T08:28:56.740Z,19.30
2022-12-27T08:33:58.925Z,11.50
2022-12-27T08:39:00.860Z,10.50
2022-12-27T08:44:02.577Z,10.70
2022-12-27T08:49:05.321Z,17.20
2022-12-27T08:54:07.252Z,16.70
2022-12-27T08:59:08.928Z,11.90
2022-12-27T09:04:10.692Z,16.30
2022-12-27T09:09:13.646Z,5.60
2022-12-27T09:14:15.402Z,11.70
2022-12-27T09:19:17.145Z,16.30
2022-12-27T09:24:19.002Z,19.80
2022-12-27T09:29:21.196Z,16.50
2022-12-27T09:34:22.887Z,17.20
2022-12-27T09:39:24.554Z,14.80
2022-12-27T09:44:47.575Z,12.70
2022-12-27T09:49:55.208Z,14.20
2022-12-27T09:55:05.385Z,12.30
2022-12-27T10:00:35.018Z,12.70
2022-12-27T10:05:39.648Z,15.30
2022-12-27T10:10:57.032Z,7.00
2022-12-27T10:16:27.867Z,5.90
2022-12-27T10:21:34.368Z,3.70
2022-12-27T10:26:38.669Z,13.40
2022-12-27T10:31:43.039Z,13.80
2022-12-27T10:36:45.463Z,11.20
2022-12-27T10:42:10.079Z,11.00
2022-12-27T10:47:11.807Z,12.80
2022-12-27T10:52:21.568Z,6.40
2022-12-27T10:57:33.463Z,6.90
2022-12-27T11:02:35.533Z,9.60
2022-12-27T11:07:37.782Z,10.40
2022-12-27T11:12:39.461Z,10.20
2022-12-27T11:17:50.258Z,6.90
2022-12-27T11:23:10.193Z,6.80
2022-12-27T11:28:34.363Z,8.20
2022-12-27T11:33:41.176Z,4.80
2022-12-27T11:38:45.082Z,5.90
2022-12-27T11:44:06.008Z,9.70
2022-12-27T11:49:17.912Z,4.60
2022-12-27T11:54:41.501Z,9.80
2022-12-27T12:00:06.689Z,3.00
2022-12-27T12:05:33.439Z,7.50
2022-12-27T12:10:44.244Z,8.80
2022-12-27T12:16:17.698Z,7.70
2022-12-27T12:21:41.243Z,7.30
2022-12-27T12:27:08.116Z,6.80
2022-12-27T12:32:45.552Z,6.00
2022-12-27T12:37:57.092Z,9.20
2022-12-27T12:43:16.999Z,5.80
2022-12-27T12:48:24.510Z,12.10
2022-12-27T12:53:49.018Z,8.80
2022-12-27T12:59:13.260Z,5.40
2022-12-27T13:04:49.772Z,5.30
2022-12-27T13:10:00.698Z,4.70
2022-12-27T13:15:17.975Z,6.40
2022-12-27T13:20:28.557Z,4.60
2022-12-27T13:25:58.785Z,6.20
2022-12-27T13:31:07.752Z,12.90
2022-12-27T13:36:24.440Z,7.00
2022-12-27T13:41:30.567Z,5.70
2022-12-27T13:47:18.563Z,6.50
2022-12-27T13:52:46.505Z,5.10
2022-12-27T13:58:08.993Z,8.20
2022-12-27T14:03:43.456Z,9.30
2022-12-27T14:09:10.230Z,6.20
2022-12-27T14:14:16.723Z,7.30
2022-12-27T14:19:41.633Z,8.40
2022-12-27T14:25:14.793Z,9.60
2022-12-27T14:30:38.527Z,10.80
2022-12-27T14:36:17.898Z,12.90
2022-12-27T14:41:54.062Z,12.30
2022-12-27T14:47:18.099Z,16.50
2022-12-27T14:52:44.239Z,17.50
2022-12-27T14:57:55.566Z,12.50
2022-12-27T15:03:17.835Z,19.20
2022-12-27T15:08:40.808Z,16.20
2022-12-27T15:14:17.679Z,16.60
2022-12-27T15:19:40.338Z,10.60
2022-12-27T15:25:06.095Z,12.00
2022-12-27T15:30:20.961Z,19.80
2022-12-27T15:35:33.533Z,12.10
2022-12-27T15:40:35.156Z,21.00
2022-12-27T15:46:08.119Z,23.60
2022-12-27T15:51:23.367Z,63.50
2022-12-27T15:57:03.630Z,101.80
2022-12-27T16:02:17.789Z,134.90
2022-12-27T16:07:52.197Z,80.80
2022-12-27T16:12:55.933Z,68.60
2022-12-27T16:17:57.738Z,51.10
2022-12-27T16:23:02.681Z,35.60
2022-12-27T16:28:16.260Z,46.10
2022-12-27T16:33:27.156Z,48.70
2022-12-27T16:38:31.942Z,39.40
2022-12-27T16:43:49.151Z,36.20
2022-12-27T16:49:34.371Z,31.80
2022-12-27T16:55:20.453Z,33.60
2022-12-27T17:00:42.481Z,34.40
2022-12-27T17:06:21.775Z,35.60
2022-12-27T17:11:39.032Z,47.00
2022-12-27T17:16:46.325Z,59.10
2022-12-27T17:21:56.731Z,34.60
2022-12-27T17:27:16.423Z,31.90
2022-12-27T17:32:39.967Z,31.00
2022-12-27T17:38:06.395Z,35.90
2022-12-27T17:43:56.738Z,35.00
2022-12-27T17:48:58.807Z,27.30
2022-12-27T17:54:42.790Z,28.60
2022-12-27T17:59:50.306Z,27.90
2022-12-27T18:04:56.186Z,29.90
2022-12-27T18:10:05.959Z,29.10
2022-12-27T18:15:26.173Z,35.80
2022-12-27T18:20:28.085Z,27.90
2022-12-27T18:25:32.714Z,25.50
2022-12-27T18:30:41.211Z,33.20
2022-12-27T18:35:48.156Z,35.70
2022-12-27T18:41:05.611Z,28.10
2022-12-27T18:46:12.516Z,27.20
2022-12-27T18:51:15.071Z,34.30
2022-12-27T18:56:32.856Z,30.00
2022-12-27T19:01:41.948Z,37.40
2022-12-27T19:06:55.999Z,39.40
2022-12-27T19:12:01.793Z,43.50
2022-12-27T19:17:10.628Z,40.10
2022-12-27T19:22:36.857Z,34.90
2022-12-27T19:27:38.694Z,40.40
2022-12-27T19:32:40.430Z,45.90
2022-12-27T19:37:42.111Z,66.50
2022-12-27T19:42:45.532Z,195.10
2022-12-27T19:47:50.671Z,241.50
2022-12-27T19:52:54.056Z,133.40
2022-12-27T19:57:57.069Z,88.10
2022-12-27T20:02:58.955Z,127.50
2022-12-27T20:08:00.809Z,83.40
2022-12-27T20:13:02.620Z,57.20
2022-12-27T20:18:04.299Z,62.20
2022-12-27T20:23:06.058Z,77.30
2022-12-27T20:28:08.274Z,56.60
2022-12-27T20:33:10.403Z,64.00
2022-12-27T20:38:12.643Z,120.90
2022-12-27T20:43:14.777Z,97.10
2022-12-27T20:48:16.570Z,131.60
2022-12-27T20:53:18.498Z,106.30
2022-12-27T20:58:20.208Z,101.60
2022-12-27T21:03:22.114Z,115.70
2022-12-27T21:08:23.820Z,95.70
2022-12-27T21:15:53.908Z,95.70
2022-12-27T21:21:19.716Z,49.20
2022-12-27T21:26:25.360Z,41.20
2022-12-27T21:31:27.896Z,47.20
2022-12-27T21:36:32.144Z,77.00
2022-12-27T21:41:36.251Z,88.90
2022-12-27T21:46:40.671Z,69.70
2022-12-27T21:51:44.056Z,54.20
2022-12-27T21:56:46.213Z,53.40
2022-12-27T22:01:51.416Z,42.70
2022-12-27T22:06:54.334Z,32.10
2022-12-27T22:11:56.067Z,38.50
2022-12-27T22:17:00.201Z,68.50
2022-12-27T22:22:01.900Z,57.40
2022-12-27T22:27:03.701Z,63.00
2022-12-27T22:32:06.109Z,33.50
2022-12-27T22:37:07.820Z,40.60
2022-12-27T22:42:09.492Z,50.00
2022-12-27T22:47:27.946Z,50.80
2022-12-27T22:52:30.199Z,59.10
2022-12-27T22:57:31.867Z,45.90
2022-12-27T23:02:33.658Z,42.70
2022-12-27T23:08:05.653Z,34.70
2022-12-27T23:12:57.146Z,34.20
2022-12-27T23:17:59.067Z,34.50
2022-12-27T23:23:00.736Z,44.20
2022-12-27T23:28:02.406Z,40.60
2022-12-27T23:33:04.232Z,39.20
2022-12-27T23:38:06.159Z,41.50
2022-12-27T23:43:42.030Z,39.40
2022-12-27T23:48:29.473Z,44.10
2022-12-27T23:53:31.200Z,47.20
2022-12-27T23:58:33.518Z,42.10
